SVR2956 UTDL-USSS
Flight info
| Callsign | SVR2956 |
|---|---|
| Flight time | 2h 42m |
| Altitude | 34000 |
| Route | DILR1A DILRO LEGSU NIMAG ARSUL LARBA GENDI GOBOR TIMKA REMOL BETPU ELSEB BURIK DZG ADOKA UMDEM SUKUR BULOG KUSOT KUSUM ARDIK KST LANOR USURA ASLIM NEKER NEKE6R |
| Aircraft | A321/M-SDE2FGHIJ1RUWY/SB1 |
Departure
| Time | 2026-04-21 07:41 |
|---|---|
| Airport | Khujand International Airport (UTDL) |
Arrival
| Time | 2026-04-21 10:24 |
|---|---|
| Airport | Koltsovo Airport (USSS) |
| Time | Latitude | Longitude | Altitude | Speed | Heading |
|---|---|---|---|---|---|
| 2026-04-21 07:23 | 40.21847 | 69.69841 | 1431 ft | 0 kts | 260° |
| 2026-04-21 07:37 | 40.21845 | 69.69833 | 1431 ft | 4 kts | 260° |
| 2026-04-21 07:37 | 40.21805 | 69.69797 | 1432 ft | 11 kts | 219° |
| 2026-04-21 07:37 | 40.21722 | 69.69773 | 1433 ft | 17 kts | 166° |
| 2026-04-21 07:37 | 40.21592 | 69.69795 | 1434 ft | 15 kts | 208° |
| 2026-04-21 07:38 | 40.21563 | 69.69646 | 1437 ft | 21 kts | 265° |
| 2026-04-21 07:38 | 40.21544 | 69.69426 | 1440 ft | 27 kts | 261° |
| 2026-04-21 07:38 | 40.21510 | 69.69163 | 1443 ft | 32 kts | 260° |
| 2026-04-21 07:38 | 40.21476 | 69.68857 | 1446 ft | 36 kts | 262° |
| 2026-04-21 07:39 | 40.21441 | 69.68523 | 1454 ft | 38 kts | 262° |
| 2026-04-21 07:39 | 40.21405 | 69.68175 | 1461 ft | 39 kts | 262° |
| 2026-04-21 07:39 | 40.21387 | 69.67911 | 1464 ft | 17 kts | 288° |
| 2026-04-21 07:39 | 40.21341 | 69.67914 | 1465 ft | 11 kts | 106° |
| 2026-04-21 07:40 | 40.21350 | 69.67938 | 1464 ft | 7 kts | 38° |
| 2026-04-21 07:40 | 40.21384 | 69.68015 | 1463 ft | 13 kts | 73° |
| 2026-04-21 07:40 | 40.21399 | 69.68146 | 1461 ft | 17 kts | 78° |
| 2026-04-21 07:40 | 40.21418 | 69.68315 | 1458 ft | 25 kts | 83° |
| 2026-04-21 07:41 | 40.21469 | 69.68810 | 1449 ft | 85 kts | 82° |
| 2026-04-21 07:41 | 40.21575 | 69.69820 | 1434 ft | 137 kts | 82° |
| 2026-04-21 07:41 | 40.21726 | 69.71240 | 1485 ft | 169 kts | 82° |
| 2026-04-21 07:41 | 40.21881 | 69.72707 | 2201 ft | 159 kts | 83° |
| 2026-04-21 07:42 | 40.22017 | 69.74157 | 2746 ft | 165 kts | 83° |
| 2026-04-21 07:42 | 40.22172 | 69.75715 | 3088 ft | 181 kts | 82° |
| 2026-04-21 07:42 | 40.22347 | 69.77421 | 3358 ft | 204 kts | 83° |
| 2026-04-21 07:42 | 40.22546 | 69.79367 | 3585 ft | 225 kts | 82° |
| 2026-04-21 07:43 | 40.22764 | 69.81465 | 3998 ft | 240 kts | 82° |
| 2026-04-21 07:43 | 40.22994 | 69.83647 | 4620 ft | 244 kts | 83° |
| 2026-04-21 07:43 | 40.23227 | 69.85889 | 5179 ft | 252 kts | 82° |
| 2026-04-21 07:43 | 40.23464 | 69.88201 | 5698 ft | 259 kts | 82° |
| 2026-04-21 07:44 | 40.23704 | 69.90565 | 6258 ft | 265 kts | 82° |
| 2026-04-21 07:44 | 40.23951 | 69.92994 | 6728 ft | 274 kts | 82° |
| 2026-04-21 07:44 | 40.24204 | 69.95464 | 7201 ft | 281 kts | 82° |
| 2026-04-21 07:44 | 40.24783 | 69.97919 | 7678 ft | 287 kts | 59° |
| 2026-04-21 07:45 | 40.26108 | 69.99888 | 8109 ft | 294 kts | 33° |
| 2026-04-21 07:45 | 40.27976 | 70.00950 | 8610 ft | 296 kts | 7° |
| 2026-04-21 07:45 | 40.30010 | 70.00900 | 9139 ft | 292 kts | 342° |
| 2026-04-21 07:45 | 40.31813 | 69.99771 | 9713 ft | 286 kts | 317° |
| 2026-04-21 07:46 | 40.33099 | 69.97826 | 10154 ft | 286 kts | 295° |
| 2026-04-21 07:46 | 40.33740 | 69.95331 | 10384 ft | 296 kts | 278° |
| 2026-04-21 07:46 | 40.34065 | 69.92600 | 10587 ft | 311 kts | 276° |
| 2026-04-21 07:46 | 40.34400 | 69.89718 | 10779 ft | 327 kts | 277° |
| 2026-04-21 07:47 | 40.34772 | 69.86771 | 11177 ft | 334 kts | 277° |
| 2026-04-21 07:47 | 40.35176 | 69.83747 | 11699 ft | 338 kts | 278° |
| 2026-04-21 07:47 | 40.35599 | 69.80720 | 12306 ft | 338 kts | 277° |
| 2026-04-21 07:47 | 40.36020 | 69.77670 | 12805 ft | 342 kts | 278° |
| 2026-04-21 07:48 | 40.36447 | 69.74579 | 13381 ft | 344 kts | 278° |
| 2026-04-21 07:48 | 40.36873 | 69.71529 | 13957 ft | 344 kts | 278° |
| 2026-04-21 07:48 | 40.37302 | 69.68436 | 14480 ft | 344 kts | 278° |
| 2026-04-21 07:48 | 40.37709 | 69.65327 | 14998 ft | 346 kts | 277° |
| 2026-04-21 07:49 | 40.37996 | 69.62185 | 15492 ft | 348 kts | 275° |
| 2026-04-21 07:49 | 40.38254 | 69.59026 | 15992 ft | 350 kts | 275° |
| 2026-04-21 07:49 | 40.38513 | 69.55837 | 16472 ft | 352 kts | 275° |
| 2026-04-21 07:49 | 40.38782 | 69.52642 | 16938 ft | 353 kts | 275° |
| 2026-04-21 07:50 | 40.39044 | 69.49429 | 17407 ft | 355 kts | 275° |
| 2026-04-21 07:50 | 40.39304 | 69.46192 | 17885 ft | 358 kts | 275° |
| 2026-04-21 07:50 | 40.39569 | 69.42938 | 18326 ft | 360 kts | 276° |
| 2026-04-21 07:50 | 40.39906 | 69.39682 | 18734 ft | 362 kts | 281° |
| 2026-04-21 07:51 | 40.40717 | 69.36544 | 19117 ft | 366 kts | 294° |
| 2026-04-21 07:51 | 40.42137 | 69.33754 | 19523 ft | 372 kts | 308° |
| 2026-04-21 07:51 | 40.44086 | 69.31534 | 19918 ft | 380 kts | 322° |
| 2026-04-21 07:51 | 40.46507 | 69.30025 | 20305 ft | 391 kts | 337° |
| 2026-04-21 07:52 | 40.49219 | 69.29406 | 20684 ft | 403 kts | 353° |
| 2026-04-21 07:52 | 40.52053 | 69.29718 | 21079 ft | 412 kts | 2° |
| 2026-04-21 07:52 | 40.54895 | 69.30328 | 21463 ft | 415 kts | 3° |
| 2026-04-21 07:52 | 40.57755 | 69.30791 | 21798 ft | 410 kts | 355° |
| 2026-04-21 07:53 | 40.60545 | 69.30530 | 22152 ft | 405 kts | 346° |
| 2026-04-21 07:53 | 40.63327 | 69.29963 | 22512 ft | 405 kts | 344° |
| 2026-04-21 07:53 | 40.66117 | 69.29340 | 22861 ft | 407 kts | 344° |
| 2026-04-21 07:53 | 40.68917 | 69.28721 | 23213 ft | 409 kts | 344° |
| 2026-04-21 07:54 | 40.71731 | 69.28108 | 23560 ft | 411 kts | 344° |
| 2026-04-21 07:54 | 40.74558 | 69.27503 | 23849 ft | 412 kts | 344° |
| 2026-04-21 07:54 | 40.77398 | 69.26915 | 24142 ft | 414 kts | 344° |
| 2026-04-21 07:54 | 40.80249 | 69.26323 | 24416 ft | 415 kts | 344° |
| 2026-04-21 07:55 | 40.83112 | 69.25732 | 24675 ft | 417 kts | 344° |
| 2026-04-21 07:55 | 40.85981 | 69.25128 | 24939 ft | 418 kts | 344° |
| 2026-04-21 07:55 | 40.88866 | 69.24518 | 25207 ft | 420 kts | 344° |
| 2026-04-21 07:55 | 40.91767 | 69.23934 | 25498 ft | 422 kts | 345° |
| 2026-04-21 07:56 | 40.94671 | 69.23348 | 25801 ft | 422 kts | 344° |
| 2026-04-21 07:56 | 40.97540 | 69.22761 | 26077 ft | 423 kts | 344° |
| 2026-04-21 07:56 | 41.00445 | 69.22157 | 26341 ft | 424 kts | 344° |
| 2026-04-21 07:56 | 41.03370 | 69.21545 | 26600 ft | 425 kts | 344° |
| 2026-04-21 07:57 | 41.06291 | 69.20930 | 26841 ft | 427 kts | 344° |
| 2026-04-21 07:57 | 41.09239 | 69.20312 | 27078 ft | 428 kts | 344° |
| 2026-04-21 07:57 | 41.12187 | 69.19693 | 27360 ft | 429 kts | 343° |
| 2026-04-21 07:57 | 41.15135 | 69.19073 | 27642 ft | 429 kts | 343° |
| 2026-04-21 07:58 | 41.18096 | 69.18450 | 27809 ft | 432 kts | 343° |
| 2026-04-21 07:58 | 41.21072 | 69.17826 | 28031 ft | 434 kts | 343° |
| 2026-04-21 07:58 | 41.24066 | 69.17198 | 28272 ft | 435 kts | 343° |
| 2026-04-21 07:58 | 41.27065 | 69.16566 | 28490 ft | 436 kts | 343° |
| 2026-04-21 07:59 | 41.30067 | 69.15933 | 28706 ft | 437 kts | 343° |
| 2026-04-21 07:59 | 41.33088 | 69.15292 | 28921 ft | 439 kts | 343° |
| 2026-04-21 07:59 | 41.36069 | 69.14658 | 29125 ft | 440 kts | 343° |
| 2026-04-21 07:59 | 41.39095 | 69.14011 | 29340 ft | 440 kts | 343° |
| 2026-04-21 08:00 | 41.42134 | 69.13369 | 29608 ft | 440 kts | 343° |
| 2026-04-21 08:00 | 41.45158 | 69.12729 | 29886 ft | 439 kts | 343° |
| 2026-04-21 08:00 | 41.48173 | 69.12089 | 30119 ft | 439 kts | 342° |
| 2026-04-21 08:00 | 41.51191 | 69.11450 | 30362 ft | 438 kts | 342° |
| 2026-04-21 08:01 | 41.54194 | 69.10811 | 30603 ft | 436 kts | 342° |
| 2026-04-21 08:01 | 41.57157 | 69.10178 | 30811 ft | 436 kts | 342° |
| 2026-04-21 08:01 | 41.60156 | 69.09540 | 31022 ft | 436 kts | 341° |
| 2026-04-21 08:02 | 41.66141 | 69.08264 | 31455 ft | 435 kts | 341° |
| 2026-04-21 08:02 | 41.69126 | 69.07628 | 31686 ft | 434 kts | 341° |
| 2026-04-21 08:02 | 41.72111 | 69.06988 | 31886 ft | 434 kts | 341° |
| 2026-04-21 08:02 | 41.75091 | 69.06342 | 32068 ft | 434 kts | 341° |
| 2026-04-21 08:03 | 41.78074 | 69.05703 | 32262 ft | 434 kts | 341° |
| 2026-04-21 08:03 | 41.81048 | 69.05066 | 32448 ft | 433 kts | 341° |
| 2026-04-21 08:03 | 41.84028 | 69.04427 | 32655 ft | 433 kts | 341° |
| 2026-04-21 08:03 | 41.87006 | 69.03789 | 32844 ft | 433 kts | 341° |
| 2026-04-21 08:04 | 41.89976 | 69.03153 | 33050 ft | 432 kts | 341° |
| 2026-04-21 08:04 | 41.92906 | 69.02524 | 33241 ft | 431 kts | 341° |
| 2026-04-21 08:04 | 41.95863 | 69.01873 | 33411 ft | 429 kts | 339° |
| 2026-04-21 08:04 | 41.98736 | 69.00929 | 33583 ft | 421 kts | 334° |
| 2026-04-21 08:05 | 42.01544 | 68.99820 | 33763 ft | 420 kts | 333° |
| 2026-04-21 08:05 | 42.07148 | 68.97599 | 33857 ft | 419 kts | 334° |
| 2026-04-21 08:06 | 42.12741 | 68.95420 | 33819 ft | 418 kts | 334° |
| 2026-04-21 08:06 | 42.18322 | 68.93229 | 33805 ft | 418 kts | 334° |
| 2026-04-21 08:07 | 42.23864 | 68.91030 | 33800 ft | 418 kts | 334° |
| 2026-04-21 08:07 | 42.29439 | 68.88826 | 33802 ft | 417 kts | 333° |
| 2026-04-21 08:08 | 42.35005 | 68.86610 | 33805 ft | 417 kts | 333° |
| 2026-04-21 08:08 | 42.40586 | 68.84415 | 33800 ft | 419 kts | 334° |
| 2026-04-21 08:09 | 42.46069 | 68.81891 | 33817 ft | 413 kts | 329° |
| 2026-04-21 08:09 | 42.51409 | 68.79024 | 33805 ft | 413 kts | 328° |
| 2026-04-21 08:10 | 42.56758 | 68.76147 | 33801 ft | 413 kts | 328° |
| 2026-04-21 08:10 | 42.62071 | 68.73288 | 33819 ft | 413 kts | 328° |
| 2026-04-21 08:11 | 42.67405 | 68.70411 | 33806 ft | 412 kts | 328° |
| 2026-04-21 08:11 | 42.72709 | 68.67477 | 33812 ft | 411 kts | 328° |
| 2026-04-21 08:12 | 42.78035 | 68.64572 | 33836 ft | 412 kts | 328° |
| 2026-04-21 08:12 | 42.83350 | 68.61715 | 33810 ft | 410 kts | 329° |
| 2026-04-21 08:13 | 42.88655 | 68.58942 | 33802 ft | 411 kts | 329° |
| 2026-04-21 08:13 | 42.93974 | 68.56105 | 33802 ft | 410 kts | 328° |
| 2026-04-21 08:14 | 42.98389 | 68.53722 | 33818 ft | 409 kts | 328° |
| 2026-04-21 08:14 | 43.03688 | 68.50892 | 33812 ft | 408 kts | 328° |
| 2026-04-21 08:15 | 43.08976 | 68.48037 | 33804 ft | 408 kts | 328° |
| 2026-04-21 08:15 | 43.14262 | 68.45190 | 33806 ft | 408 kts | 328° |
| 2026-04-21 08:16 | 43.19552 | 68.42327 | 33807 ft | 408 kts | 328° |
| 2026-04-21 08:16 | 43.24792 | 68.39470 | 33807 ft | 408 kts | 328° |
| 2026-04-21 08:17 | 43.30161 | 68.36823 | 33825 ft | 418 kts | 336° |
| 2026-04-21 08:17 | 43.33085 | 68.36185 | 33821 ft | 429 kts | 343° |
| 2026-04-21 08:17 | 43.36074 | 68.35799 | 33814 ft | 431 kts | 344° |
| 2026-04-21 08:18 | 43.42052 | 68.35076 | 33813 ft | 431 kts | 343° |
| 2026-04-21 08:18 | 43.48017 | 68.34308 | 33823 ft | 430 kts | 343° |
| 2026-04-21 08:19 | 43.53970 | 68.33493 | 33829 ft | 429 kts | 343° |
| 2026-04-21 08:19 | 43.59887 | 68.32693 | 33832 ft | 429 kts | 343° |
| 2026-04-21 08:20 | 43.65843 | 68.31891 | 33826 ft | 430 kts | 343° |
| 2026-04-21 08:20 | 43.71786 | 68.31095 | 33875 ft | 425 kts | 343° |
| 2026-04-21 08:21 | 43.77608 | 68.30307 | 33846 ft | 424 kts | 343° |
| 2026-04-21 08:21 | 43.83485 | 68.29508 | 33836 ft | 425 kts | 343° |
| 2026-04-21 08:22 | 43.89373 | 68.28710 | 33831 ft | 426 kts | 343° |
| 2026-04-21 08:22 | 43.95288 | 68.27900 | 33845 ft | 427 kts | 343° |
| 2026-04-21 08:23 | 44.01179 | 68.27114 | 33835 ft | 424 kts | 343° |
| 2026-04-21 08:23 | 44.07074 | 68.26305 | 33850 ft | 426 kts | 343° |
| 2026-04-21 08:24 | 44.13004 | 68.25498 | 33834 ft | 429 kts | 343° |
| 2026-04-21 08:24 | 44.18907 | 68.24694 | 33824 ft | 429 kts | 343° |
| 2026-04-21 08:25 | 44.24840 | 68.23879 | 33819 ft | 429 kts | 343° |
| 2026-04-21 08:25 | 44.30810 | 68.23056 | 33841 ft | 430 kts | 344° |
| 2026-04-21 08:26 | 44.36732 | 68.22232 | 33816 ft | 428 kts | 344° |
| 2026-04-21 08:26 | 44.42639 | 68.21412 | 33812 ft | 429 kts | 344° |
| 2026-04-21 08:27 | 44.48588 | 68.20599 | 33810 ft | 429 kts | 344° |
| 2026-04-21 08:27 | 44.54537 | 68.19775 | 33809 ft | 429 kts | 344° |
| 2026-04-21 08:28 | 44.60490 | 68.18952 | 33809 ft | 430 kts | 344° |
| 2026-04-21 08:28 | 44.66442 | 68.18128 | 33822 ft | 430 kts | 345° |
| 2026-04-21 08:29 | 44.72412 | 68.17295 | 33811 ft | 431 kts | 345° |
| 2026-04-21 08:29 | 44.78395 | 68.16460 | 33809 ft | 432 kts | 345° |
| 2026-04-21 08:30 | 44.84336 | 68.15628 | 33815 ft | 432 kts | 345° |
| 2026-04-21 08:30 | 44.90330 | 68.14794 | 33808 ft | 433 kts | 345° |
| 2026-04-21 08:31 | 44.96342 | 68.13937 | 33813 ft | 435 kts | 345° |
| 2026-04-21 08:31 | 45.02375 | 68.13097 | 33809 ft | 435 kts | 346° |
| 2026-04-21 08:32 | 45.08404 | 68.12244 | 33803 ft | 435 kts | 345° |
| 2026-04-21 08:32 | 45.14399 | 68.11400 | 33807 ft | 435 kts | 346° |
| 2026-04-21 08:33 | 45.20427 | 68.10549 | 33807 ft | 435 kts | 346° |
| 2026-04-21 08:33 | 45.26455 | 68.09693 | 33821 ft | 436 kts | 346° |
| 2026-04-21 08:34 | 45.32512 | 68.08834 | 33813 ft | 437 kts | 346° |
| 2026-04-21 08:34 | 45.38566 | 68.07965 | 33810 ft | 437 kts | 346° |
| 2026-04-21 08:35 | 45.44626 | 68.07107 | 33837 ft | 437 kts | 346° |
| 2026-04-21 08:35 | 45.50699 | 68.06236 | 33817 ft | 438 kts | 346° |
| 2026-04-21 08:36 | 45.56720 | 68.05373 | 33816 ft | 436 kts | 347° |
| 2026-04-21 08:36 | 45.62753 | 68.04511 | 33814 ft | 436 kts | 347° |
| 2026-04-21 08:37 | 45.68795 | 68.03640 | 33819 ft | 437 kts | 347° |
| 2026-04-21 08:37 | 45.74868 | 68.02763 | 33809 ft | 438 kts | 347° |
| 2026-04-21 08:38 | 45.80895 | 68.01892 | 33809 ft | 438 kts | 347° |
| 2026-04-21 08:38 | 45.86953 | 68.01009 | 33819 ft | 438 kts | 347° |
| 2026-04-21 08:39 | 45.93051 | 68.00118 | 33814 ft | 440 kts | 347° |
| 2026-04-21 08:39 | 45.99154 | 67.99228 | 33811 ft | 440 kts | 347° |
| 2026-04-21 08:40 | 46.05243 | 67.98352 | 33810 ft | 440 kts | 347° |
| 2026-04-21 08:40 | 46.11346 | 67.97452 | 33813 ft | 441 kts | 348° |
| 2026-04-21 08:41 | 46.17417 | 67.96558 | 33809 ft | 441 kts | 348° |
| 2026-04-21 08:41 | 46.23524 | 67.95667 | 33828 ft | 441 kts | 348° |
| 2026-04-21 08:42 | 46.29628 | 67.94768 | 33827 ft | 441 kts | 348° |
| 2026-04-21 08:42 | 46.35734 | 67.93868 | 33815 ft | 441 kts | 348° |
| 2026-04-21 08:43 | 46.41846 | 67.92958 | 33813 ft | 441 kts | 348° |
| 2026-04-21 08:43 | 46.47955 | 67.92052 | 33828 ft | 441 kts | 348° |
| 2026-04-21 08:44 | 46.54036 | 67.91165 | 33827 ft | 442 kts | 349° |
| 2026-04-21 08:44 | 46.60193 | 67.90528 | 33822 ft | 443 kts | 351° |
| 2026-04-21 08:45 | 46.66347 | 67.89925 | 33820 ft | 443 kts | 350° |
| 2026-04-21 08:45 | 46.72456 | 67.89306 | 33838 ft | 443 kts | 351° |
| 2026-04-21 08:46 | 46.78600 | 67.88695 | 33823 ft | 442 kts | 351° |
| 2026-04-21 08:46 | 46.84749 | 67.88079 | 33827 ft | 443 kts | 351° |
| 2026-04-21 08:47 | 46.90901 | 67.87459 | 33824 ft | 443 kts | 351° |
| 2026-04-21 08:47 | 46.97061 | 67.86825 | 33827 ft | 443 kts | 351° |
| 2026-04-21 08:48 | 47.03199 | 67.86082 | 33826 ft | 442 kts | 349° |
| 2026-04-21 08:48 | 47.09278 | 67.85231 | 33826 ft | 440 kts | 349° |
| 2026-04-21 08:49 | 47.15385 | 67.84351 | 33824 ft | 440 kts | 349° |
| 2026-04-21 08:49 | 47.21487 | 67.83467 | 33826 ft | 441 kts | 349° |
| 2026-04-21 08:50 | 47.27602 | 67.82600 | 33826 ft | 441 kts | 349° |
| 2026-04-21 08:50 | 47.33711 | 67.81733 | 33827 ft | 441 kts | 349° |
| 2026-04-21 08:51 | 47.39777 | 67.80854 | 33826 ft | 440 kts | 349° |
| 2026-04-21 08:51 | 47.45877 | 67.79982 | 33818 ft | 440 kts | 349° |
| 2026-04-21 08:52 | 47.51997 | 67.79099 | 33821 ft | 442 kts | 350° |
| 2026-04-21 08:52 | 47.58121 | 67.78221 | 33824 ft | 442 kts | 350° |
| 2026-04-21 08:53 | 47.64201 | 67.77337 | 33819 ft | 442 kts | 350° |
| 2026-04-21 08:53 | 47.70325 | 67.76401 | 33814 ft | 440 kts | 347° |
| 2026-04-21 08:53 | 47.73270 | 67.75336 | 33812 ft | 433 kts | 336° |
| 2026-04-21 08:54 | 47.76040 | 67.73591 | 33820 ft | 431 kts | 331° |
| 2026-04-21 08:54 | 47.81471 | 67.69815 | 33838 ft | 430 kts | 331° |
| 2026-04-21 08:55 | 47.86905 | 67.66065 | 33838 ft | 430 kts | 331° |
| 2026-04-21 08:55 | 47.92304 | 67.62319 | 33840 ft | 430 kts | 331° |
| 2026-04-21 08:56 | 47.97732 | 67.58561 | 33858 ft | 430 kts | 331° |
| 2026-04-21 08:56 | 48.03191 | 67.54813 | 33849 ft | 431 kts | 332° |
| 2026-04-21 08:57 | 48.08638 | 67.51058 | 33847 ft | 431 kts | 331° |
| 2026-04-21 08:57 | 48.14049 | 67.47324 | 33850 ft | 431 kts | 331° |
| 2026-04-21 08:58 | 48.19499 | 67.43561 | 33853 ft | 431 kts | 332° |
| 2026-04-21 08:58 | 48.24953 | 67.39772 | 33850 ft | 431 kts | 332° |
| 2026-04-21 08:59 | 48.30407 | 67.35989 | 33849 ft | 431 kts | 331° |
| 2026-04-21 08:59 | 48.35855 | 67.32185 | 33847 ft | 431 kts | 331° |
| 2026-04-21 09:00 | 48.40343 | 67.28929 | 33852 ft | 431 kts | 330° |
| 2026-04-21 09:00 | 48.46596 | 67.24284 | 33845 ft | 431 kts | 330° |
| 2026-04-21 09:01 | 48.51978 | 67.20271 | 33840 ft | 431 kts | 330° |
| 2026-04-21 09:01 | 48.56447 | 67.16934 | 33835 ft | 431 kts | 330° |
| 2026-04-21 09:02 | 48.61823 | 67.12913 | 33831 ft | 431 kts | 330° |
| 2026-04-21 09:02 | 48.67214 | 67.08872 | 33827 ft | 431 kts | 330° |
| 2026-04-21 09:03 | 48.75252 | 67.02843 | 33810 ft | 431 kts | 330° |
| 2026-04-21 09:03 | 48.80636 | 66.98786 | 33815 ft | 431 kts | 330° |
| 2026-04-21 09:04 | 48.86011 | 66.94722 | 33809 ft | 431 kts | 330° |
| 2026-04-21 09:04 | 48.91389 | 66.90649 | 33809 ft | 431 kts | 330° |
| 2026-04-21 09:05 | 48.96796 | 66.86796 | 33808 ft | 432 kts | 332° |
| 2026-04-21 09:05 | 49.02296 | 66.83048 | 33803 ft | 432 kts | 332° |
| 2026-04-21 09:06 | 49.07793 | 66.79306 | 33803 ft | 433 kts | 332° |
| 2026-04-21 09:06 | 49.13296 | 66.75535 | 33803 ft | 433 kts | 332° |
| 2026-04-21 09:07 | 49.18790 | 66.71765 | 33799 ft | 433 kts | 332° |
| 2026-04-21 09:07 | 49.24284 | 66.67988 | 33796 ft | 433 kts | 332° |
| 2026-04-21 09:08 | 49.29733 | 66.64235 | 33799 ft | 433 kts | 332° |
| 2026-04-21 09:08 | 49.35222 | 66.60442 | 33797 ft | 432 kts | 332° |
| 2026-04-21 09:09 | 49.40715 | 66.56637 | 33802 ft | 433 kts | 332° |
| 2026-04-21 09:09 | 49.46204 | 66.52825 | 33793 ft | 433 kts | 332° |
| 2026-04-21 09:10 | 49.51695 | 66.49006 | 33794 ft | 433 kts | 332° |
| 2026-04-21 09:10 | 49.57191 | 66.45175 | 33790 ft | 433 kts | 332° |
| 2026-04-21 09:11 | 49.62648 | 66.41359 | 33798 ft | 433 kts | 332° |
| 2026-04-21 09:11 | 49.68140 | 66.37494 | 33790 ft | 433 kts | 332° |
| 2026-04-21 09:12 | 49.73629 | 66.33621 | 33790 ft | 433 kts | 331° |
| 2026-04-21 09:12 | 49.78989 | 66.29470 | 33790 ft | 432 kts | 329° |
| 2026-04-21 09:13 | 49.84352 | 66.25246 | 33794 ft | 433 kts | 329° |
| 2026-04-21 09:13 | 49.89737 | 66.20991 | 33789 ft | 433 kts | 329° |
| 2026-04-21 09:14 | 49.95099 | 66.16731 | 33787 ft | 433 kts | 329° |
| 2026-04-21 09:14 | 50.00434 | 66.12495 | 33790 ft | 433 kts | 329° |
| 2026-04-21 09:15 | 50.05806 | 66.08208 | 33794 ft | 434 kts | 329° |
| 2026-04-21 09:15 | 50.11178 | 66.03917 | 33792 ft | 434 kts | 329° |
| 2026-04-21 09:16 | 50.16577 | 65.99690 | 33792 ft | 434 kts | 330° |
| 2026-04-21 09:16 | 50.22034 | 65.95604 | 33791 ft | 435 kts | 330° |
| 2026-04-21 09:17 | 50.27453 | 65.91528 | 33796 ft | 434 kts | 330° |
| 2026-04-21 09:17 | 50.32899 | 65.87424 | 33791 ft | 434 kts | 330° |
| 2026-04-21 09:18 | 50.38357 | 65.83311 | 33790 ft | 434 kts | 330° |
| 2026-04-21 09:18 | 50.43798 | 65.79201 | 33790 ft | 434 kts | 330° |
| 2026-04-21 09:19 | 50.49255 | 65.75077 | 33794 ft | 435 kts | 329° |
| 2026-04-21 09:19 | 50.54680 | 65.70960 | 33792 ft | 435 kts | 329° |
| 2026-04-21 09:20 | 50.60143 | 65.66806 | 33792 ft | 435 kts | 329° |
| 2026-04-21 09:20 | 50.65600 | 65.62642 | 33791 ft | 435 kts | 329° |
| 2026-04-21 09:21 | 50.71037 | 65.58485 | 33793 ft | 436 kts | 329° |
| 2026-04-21 09:21 | 50.76500 | 65.54300 | 33785 ft | 436 kts | 329° |
| 2026-04-21 09:22 | 50.81959 | 65.50108 | 33783 ft | 436 kts | 329° |
| 2026-04-21 09:22 | 50.87426 | 65.45901 | 33796 ft | 436 kts | 329° |
| 2026-04-21 09:23 | 50.92890 | 65.41674 | 33784 ft | 437 kts | 329° |
| 2026-04-21 09:23 | 50.98360 | 65.37434 | 33783 ft | 437 kts | 329° |
| 2026-04-21 09:24 | 51.03791 | 65.33216 | 33783 ft | 437 kts | 329° |
| 2026-04-21 09:24 | 51.09292 | 65.28934 | 33795 ft | 437 kts | 329° |
| 2026-04-21 09:25 | 51.14718 | 65.24695 | 33785 ft | 438 kts | 328° |
| 2026-04-21 09:25 | 51.20200 | 65.20406 | 33782 ft | 438 kts | 328° |
| 2026-04-21 09:26 | 51.25674 | 65.16103 | 33782 ft | 438 kts | 328° |
| 2026-04-21 09:26 | 51.31137 | 65.11802 | 33778 ft | 437 kts | 328° |
| 2026-04-21 09:27 | 51.36598 | 65.07491 | 33777 ft | 437 kts | 328° |
| 2026-04-21 09:27 | 51.42047 | 65.03181 | 33773 ft | 437 kts | 328° |
| 2026-04-21 09:28 | 51.47465 | 64.98879 | 33777 ft | 437 kts | 328° |
| 2026-04-21 09:28 | 51.52914 | 64.94546 | 33802 ft | 437 kts | 328° |
| 2026-04-21 09:29 | 51.58378 | 64.90186 | 33777 ft | 438 kts | 328° |
| 2026-04-21 09:29 | 51.63846 | 64.85814 | 33772 ft | 438 kts | 328° |
| 2026-04-21 09:30 | 51.69311 | 64.81431 | 33770 ft | 438 kts | 328° |
| 2026-04-21 09:30 | 51.74738 | 64.77062 | 33788 ft | 438 kts | 328° |
| 2026-04-21 09:31 | 51.80221 | 64.72708 | 33774 ft | 439 kts | 328° |
| 2026-04-21 09:31 | 51.85711 | 64.68351 | 33770 ft | 439 kts | 328° |
| 2026-04-21 09:32 | 51.91196 | 64.63980 | 33767 ft | 439 kts | 328° |
| 2026-04-21 09:32 | 51.96655 | 64.59620 | 33796 ft | 439 kts | 328° |
| 2026-04-21 09:33 | 52.02144 | 64.55213 | 33778 ft | 441 kts | 328° |
| 2026-04-21 09:33 | 52.07644 | 64.50791 | 33765 ft | 441 kts | 327° |
| 2026-04-21 09:34 | 52.13153 | 64.46343 | 33768 ft | 441 kts | 327° |
| 2026-04-21 09:34 | 52.18647 | 64.41908 | 33779 ft | 441 kts | 327° |
| 2026-04-21 09:35 | 52.24112 | 64.37471 | 33757 ft | 442 kts | 327° |
| 2026-04-21 09:35 | 52.29596 | 64.32916 | 33755 ft | 441 kts | 326° |
| 2026-04-21 09:36 | 52.35062 | 64.28296 | 33753 ft | 441 kts | 326° |
| 2026-04-21 09:36 | 52.40520 | 64.23687 | 33753 ft | 441 kts | 326° |
| 2026-04-21 09:37 | 52.45989 | 64.19064 | 33751 ft | 442 kts | 326° |
| 2026-04-21 09:37 | 52.51416 | 64.14450 | 33744 ft | 442 kts | 326° |
| 2026-04-21 09:38 | 52.56883 | 64.09802 | 33745 ft | 442 kts | 326° |
| 2026-04-21 09:38 | 52.62342 | 64.05143 | 33737 ft | 442 kts | 326° |
| 2026-04-21 09:39 | 52.67810 | 64.00466 | 33743 ft | 444 kts | 326° |
| 2026-04-21 09:39 | 52.73291 | 63.95754 | 33737 ft | 444 kts | 325° |
| 2026-04-21 09:40 | 52.78764 | 63.91043 | 33733 ft | 443 kts | 326° |
| 2026-04-21 09:40 | 52.84202 | 63.86353 | 33737 ft | 443 kts | 325° |
| 2026-04-21 09:41 | 52.89677 | 63.81609 | 33740 ft | 444 kts | 325° |
| 2026-04-21 09:41 | 52.95150 | 63.76860 | 33730 ft | 444 kts | 325° |
| 2026-04-21 09:42 | 53.00628 | 63.72088 | 33733 ft | 444 kts | 325° |
| 2026-04-21 09:42 | 53.06110 | 63.67300 | 33727 ft | 445 kts | 325° |
| 2026-04-21 09:43 | 53.11594 | 63.62498 | 33746 ft | 446 kts | 325° |
| 2026-04-21 09:43 | 53.17091 | 63.57670 | 33734 ft | 447 kts | 325° |
| 2026-04-21 09:44 | 53.22474 | 63.52670 | 33730 ft | 445 kts | 323° |
| 2026-04-21 09:44 | 53.27848 | 63.47530 | 33731 ft | 445 kts | 323° |
| 2026-04-21 09:45 | 53.33219 | 63.42383 | 33743 ft | 446 kts | 323° |
| 2026-04-21 09:45 | 53.38620 | 63.37201 | 33725 ft | 447 kts | 323° |
| 2026-04-21 09:46 | 53.44015 | 63.32007 | 33721 ft | 447 kts | 323° |
| 2026-04-21 09:46 | 53.49387 | 63.26817 | 33719 ft | 447 kts | 323° |
| 2026-04-21 09:47 | 53.54779 | 63.21587 | 33717 ft | 447 kts | 322° |
| 2026-04-21 09:47 | 53.60169 | 63.16343 | 33719 ft | 447 kts | 322° |
| 2026-04-21 09:48 | 53.65561 | 63.11081 | 33718 ft | 447 kts | 322° |
| 2026-04-21 09:48 | 53.70029 | 63.06716 | 33711 ft | 446 kts | 322° |
| 2026-04-21 09:49 | 53.76285 | 63.00580 | 33744 ft | 447 kts | 322° |
| 2026-04-21 09:49 | 53.80769 | 62.96167 | 33728 ft | 449 kts | 322° |
| 2026-04-21 09:50 | 53.85293 | 62.91708 | 33718 ft | 449 kts | 322° |
| 2026-04-21 09:50 | 53.91569 | 62.85505 | 33717 ft | 448 kts | 322° |
| 2026-04-21 09:51 | 53.96952 | 62.80163 | 33714 ft | 448 kts | 322° |
| 2026-04-21 09:51 | 54.02352 | 62.74787 | 33726 ft | 452 kts | 322° |
| 2026-04-21 09:52 | 54.07780 | 62.69366 | 33712 ft | 452 kts | 322° |
| 2026-04-21 09:52 | 54.13278 | 62.64114 | 33707 ft | 454 kts | 323° |
| 2026-04-21 09:53 | 54.18779 | 62.58961 | 33706 ft | 453 kts | 323° |
| 2026-04-21 09:53 | 54.24311 | 62.53748 | 33723 ft | 455 kts | 323° |
| 2026-04-21 09:54 | 54.29864 | 62.48497 | 33690 ft | 455 kts | 323° |
| 2026-04-21 09:54 | 54.35417 | 62.43236 | 33692 ft | 456 kts | 323° |
| 2026-04-21 09:55 | 54.40927 | 62.37996 | 33693 ft | 455 kts | 323° |
| 2026-04-21 09:55 | 54.46476 | 62.32711 | 33706 ft | 457 kts | 323° |
| 2026-04-21 09:56 | 54.52044 | 62.27404 | 33691 ft | 457 kts | 323° |
| 2026-04-21 09:56 | 54.57613 | 62.22071 | 33682 ft | 457 kts | 323° |
| 2026-04-21 09:57 | 54.63137 | 62.16755 | 33681 ft | 457 kts | 323° |
| 2026-04-21 09:57 | 54.68694 | 62.11392 | 33711 ft | 458 kts | 323° |
| 2026-04-21 09:58 | 54.74260 | 62.05994 | 33685 ft | 459 kts | 323° |
| 2026-04-21 09:58 | 54.79838 | 62.00579 | 33675 ft | 459 kts | 323° |
| 2026-04-21 09:59 | 54.85404 | 61.95148 | 33674 ft | 459 kts | 323° |
| 2026-04-21 09:59 | 54.90976 | 61.89703 | 33708 ft | 459 kts | 324° |
| 2026-04-21 10:00 | 54.96553 | 61.84234 | 33683 ft | 461 kts | 324° |
| 2026-04-21 10:00 | 55.02424 | 61.79875 | 33675 ft | 476 kts | 343° |
| 2026-04-21 10:01 | 55.09125 | 61.79036 | 33688 ft | 484 kts | 353° |
| 2026-04-21 10:01 | 55.15866 | 61.78624 | 33686 ft | 483 kts | 353° |
| 2026-04-21 10:02 | 55.25917 | 61.77901 | 33696 ft | 483 kts | 353° |
| 2026-04-21 10:03 | 55.32642 | 61.77407 | 33697 ft | 483 kts | 353° |
| 2026-04-21 10:03 | 55.39377 | 61.76922 | 33683 ft | 483 kts | 353° |
| 2026-04-21 10:04 | 55.46093 | 61.76421 | 33725 ft | 483 kts | 353° |
| 2026-04-21 10:04 | 55.52766 | 61.75924 | 33708 ft | 482 kts | 353° |
| 2026-04-21 10:05 | 55.59476 | 61.75424 | 33706 ft | 483 kts | 353° |
| 2026-04-21 10:05 | 55.66195 | 61.74939 | 33712 ft | 483 kts | 353° |
| 2026-04-21 10:06 | 55.72906 | 61.74444 | 33468 ft | 481 kts | 353° |
| 2026-04-21 10:06 | 55.76257 | 61.74188 | 33167 ft | 482 kts | 353° |
| 2026-04-21 10:06 | 55.79611 | 61.73934 | 32803 ft | 480 kts | 354° |
| 2026-04-21 10:06 | 55.82937 | 61.73683 | 31769 ft | 488 kts | 354° |
| 2026-04-21 10:07 | 55.86328 | 61.73084 | 30871 ft | 487 kts | 344° |
| 2026-04-21 10:07 | 55.89481 | 61.71221 | 30289 ft | 473 kts | 329° |
| 2026-04-21 10:07 | 55.92215 | 61.68131 | 29689 ft | 458 kts | 314° |
| 2026-04-21 10:07 | 55.94417 | 61.64133 | 28935 ft | 445 kts | 304° |
| 2026-04-21 10:08 | 55.96381 | 61.59916 | 28137 ft | 439 kts | 303° |
| 2026-04-21 10:08 | 55.98302 | 61.55725 | 27349 ft | 434 kts | 303° |
| 2026-04-21 10:08 | 56.00213 | 61.51586 | 26599 ft | 429 kts | 303° |
| 2026-04-21 10:08 | 56.02112 | 61.47500 | 25863 ft | 425 kts | 303° |
| 2026-04-21 10:09 | 56.04000 | 61.43457 | 25172 ft | 420 kts | 303° |
| 2026-04-21 10:09 | 56.05866 | 61.39458 | 24478 ft | 416 kts | 303° |
| 2026-04-21 10:09 | 56.07686 | 61.35553 | 23812 ft | 412 kts | 303° |
| 2026-04-21 10:09 | 56.09512 | 61.31623 | 23066 ft | 408 kts | 303° |
| 2026-04-21 10:10 | 56.11308 | 61.27755 | 22319 ft | 401 kts | 303° |
| 2026-04-21 10:10 | 56.13080 | 61.23928 | 21494 ft | 395 kts | 303° |
| 2026-04-21 10:10 | 56.14821 | 61.20165 | 20731 ft | 389 kts | 303° |
| 2026-04-21 10:10 | 56.16533 | 61.16457 | 19963 ft | 383 kts | 304° |
| 2026-04-21 10:11 | 56.18220 | 61.12799 | 19253 ft | 378 kts | 304° |
| 2026-04-21 10:11 | 56.19878 | 61.09189 | 18495 ft | 373 kts | 304° |
| 2026-04-21 10:11 | 56.21520 | 61.05611 | 17717 ft | 367 kts | 304° |
| 2026-04-21 10:11 | 56.23135 | 61.02096 | 16896 ft | 363 kts | 304° |
| 2026-04-21 10:12 | 56.24731 | 60.98617 | 16083 ft | 358 kts | 304° |
| 2026-04-21 10:12 | 56.26308 | 60.95172 | 15295 ft | 354 kts | 304° |
| 2026-04-21 10:12 | 56.27845 | 60.91810 | 14534 ft | 350 kts | 305° |
| 2026-04-21 10:12 | 56.29382 | 60.88443 | 13782 ft | 345 kts | 305° |
| 2026-04-21 10:13 | 56.30899 | 60.85118 | 12975 ft | 342 kts | 305° |
| 2026-04-21 10:13 | 56.32397 | 60.81830 | 12174 ft | 338 kts | 305° |
| 2026-04-21 10:13 | 56.33875 | 60.78578 | 11413 ft | 334 kts | 305° |
| 2026-04-21 10:13 | 56.35334 | 60.75369 | 10861 ft | 324 kts | 305° |
| 2026-04-21 10:14 | 56.36714 | 60.72329 | 10508 ft | 309 kts | 304° |
| 2026-04-21 10:14 | 56.38056 | 60.69372 | 10199 ft | 295 kts | 304° |
| 2026-04-21 10:14 | 56.39328 | 60.66567 | 9797 ft | 285 kts | 304° |
| 2026-04-21 10:14 | 56.40577 | 60.63799 | 9208 ft | 282 kts | 304° |
| 2026-04-21 10:15 | 56.41806 | 60.61072 | 8756 ft | 278 kts | 304° |
| 2026-04-21 10:15 | 56.43025 | 60.58362 | 8348 ft | 276 kts | 304° |
| 2026-04-21 10:15 | 56.44229 | 60.55685 | 7969 ft | 274 kts | 304° |
| 2026-04-21 10:15 | 56.45411 | 60.53059 | 7607 ft | 271 kts | 304° |
| 2026-04-21 10:16 | 56.46598 | 60.50416 | 7258 ft | 268 kts | 304° |
| 2026-04-21 10:16 | 56.47905 | 60.48007 | 6892 ft | 271 kts | 320° |
| 2026-04-21 10:16 | 56.49657 | 60.46705 | 6509 ft | 278 kts | 348° |
| 2026-04-21 10:16 | 56.51593 | 60.46614 | 6150 ft | 279 kts | 359° |
| 2026-04-21 10:17 | 56.53531 | 60.46761 | 5756 ft | 277 kts | 359° |
| 2026-04-21 10:17 | 56.55427 | 60.46895 | 5387 ft | 276 kts | 359° |
| 2026-04-21 10:17 | 56.57356 | 60.47006 | 5136 ft | 278 kts | 359° |
| 2026-04-21 10:17 | 56.59283 | 60.47104 | 4831 ft | 276 kts | 358° |
| 2026-04-21 10:18 | 56.61197 | 60.47188 | 4466 ft | 275 kts | 358° |
| 2026-04-21 10:18 | 56.63121 | 60.47266 | 4086 ft | 277 kts | 360° |
| 2026-04-21 10:18 | 56.65053 | 60.47346 | 3693 ft | 279 kts | 1° |
| 2026-04-21 10:18 | 56.66989 | 60.47424 | 3302 ft | 277 kts | 2° |
| 2026-04-21 10:19 | 56.68911 | 60.47500 | 2917 ft | 275 kts | 3° |
| 2026-04-21 10:19 | 56.70802 | 60.47576 | 2675 ft | 266 kts | 4° |
| 2026-04-21 10:19 | 56.72579 | 60.47682 | 2647 ft | 250 kts | 7° |
| 2026-04-21 10:19 | 56.74161 | 60.48502 | 2631 ft | 227 kts | 38° |
| 2026-04-21 10:20 | 56.75138 | 60.50643 | 2623 ft | 219 kts | 72° |
| 2026-04-21 10:20 | 56.75327 | 60.53290 | 2542 ft | 205 kts | 95° |
| 2026-04-21 10:20 | 56.75194 | 60.55794 | 2409 ft | 193 kts | 98° |
| 2026-04-21 10:20 | 56.75041 | 60.58186 | 2349 ft | 189 kts | 97° |
| 2026-04-21 10:21 | 56.74929 | 60.60583 | 2360 ft | 190 kts | 95° |
| 2026-04-21 10:21 | 56.74830 | 60.62955 | 2377 ft | 189 kts | 95° |
| 2026-04-21 10:21 | 56.74740 | 60.65184 | 2346 ft | 166 kts | 95° |
| 2026-04-21 10:21 | 56.74661 | 60.67175 | 2124 ft | 149 kts | 95° |
| 2026-04-21 10:22 | 56.74588 | 60.68977 | 1853 ft | 139 kts | 95° |
| 2026-04-21 10:22 | 56.74512 | 60.70737 | 1598 ft | 139 kts | 94° |
| 2026-04-21 10:22 | 56.74450 | 60.72488 | 1413 ft | 139 kts | 94° |
| 2026-04-21 10:22 | 56.74373 | 60.74241 | 1193 ft | 139 kts | 93° |
| 2026-04-21 10:23 | 56.74311 | 60.75988 | 1035 ft | 138 kts | 94° |
| 2026-04-21 10:23 | 56.74238 | 60.77728 | 836 ft | 137 kts | 94° |
| 2026-04-21 10:23 | 56.74173 | 60.79360 | 787 ft | 113 kts | 94° |
| 2026-04-21 10:23 | 56.74130 | 60.80469 | 785 ft | 63 kts | 93° |
| 2026-04-21 10:24 | 56.74111 | 60.80935 | 786 ft | 8 kts | 95° |
| 2026-04-21 10:24 | 56.74104 | 60.81084 | 786 ft | 16 kts | 95° |
| 2026-04-21 10:24 | 56.74093 | 60.81337 | 786 ft | 24 kts | 94° |
| 2026-04-21 10:24 | 56.74080 | 60.81686 | 786 ft | 31 kts | 94° |
| 2026-04-21 10:25 | 56.74067 | 60.82030 | 786 ft | 6 kts | 94° |
| 2026-04-21 10:25 | 56.74090 | 60.82147 | 786 ft | 14 kts | 30° |
| 2026-04-21 10:25 | 56.74210 | 60.82166 | 786 ft | 20 kts | 4° |
| 2026-04-21 10:25 | 56.74366 | 60.82188 | 786 ft | 25 kts | 5° |
| 2026-04-21 10:26 | 56.74548 | 60.82212 | 786 ft | 28 kts | 356° |
| 2026-04-21 10:26 | 56.74655 | 60.82197 | 786 ft | 2 kts | 7° |
| 2026-04-21 10:26 | 56.74697 | 60.82205 | 786 ft | 10 kts | 4° |
| 2026-04-21 10:26 | 56.74783 | 60.82134 | 786 ft | 18 kts | 296° |
| 2026-04-21 10:27 | 56.74852 | 60.81889 | 786 ft | 24 kts | 289° |
| 2026-04-21 10:27 | 56.74866 | 60.81570 | 786 ft | 27 kts | 269° |
| 2026-04-21 10:27 | 56.74864 | 60.81215 | 786 ft | 29 kts | 270° |
| 2026-04-21 10:27 | 56.74861 | 60.81045 | 786 ft | 0 kts | 251° |
| 2026-04-21 10:28 | 56.74856 | 60.80972 | 786 ft | 10 kts | 263° |
| 2026-04-21 10:28 | 56.74855 | 60.80816 | 786 ft | 15 kts | 270° |
| 2026-04-21 10:28 | 56.74854 | 60.80608 | 786 ft | 19 kts | 269° |
| 2026-04-21 10:28 | 56.74854 | 60.80557 | 786 ft | 5 kts | 269° |
| 2026-04-21 10:29 | 56.74880 | 60.80491 | 786 ft | 11 kts | 11° |
| 2026-04-21 10:29 | 56.74911 | 60.80497 | 786 ft | 4 kts | 1° |
| 2026-04-21 10:29 | 56.74933 | 60.80497 | 786 ft | 2 kts | 0° |
| 2026-04-21 10:29 | 56.74941 | 60.80497 | 786 ft | 0 kts | 359° |